Time;durP1;ratioP1;P1;durP2;ratioP2;P2;SDS_P1;SDS_P2;PMS_P1;PMS_P2;Temp;Humidity;BMP_temperature;BMP_pressure;BME280_temperature;BME280_humidity;BME280_pressure;Samples;Min_cycle;Max_cycle;Signal;HPM_P1;HPM_P2
2022/06/18 00:01:37;;;;;;;4.92;4.50;;;;;;;15.38;90.26;99871.17;1721276;81;21021;-78
2022/06/18 00:04:10;;;;;;;7.97;5.67;;;;;;;15.33;90.15;99865.87;1702742;82;21009;-77
2022/06/18 00:06:51;;;;;;;6.55;5.58;;;;;;;15.25;90.60;99857.18;1724124;81;21062;-74
2022/06/18 00:09:26;;;;;;;6.50;4.85;;;;;;;15.13;90.74;99860.91;1691241;83;21595;-74
2022/06/18 00:14:42;;;;;;;5.53;5.03;;;;;;;15.10;90.99;99853.26;1707844;81;21077;-75
2022/06/18 00:17:13;;;;;;;5.25;4.75;;;;;;;14.96;91.50;99852.34;1716380;82;21058;-75
2022/06/18 00:19:40;;;;;;;4.53;4.12;;;;;;;14.96;91.34;99848.33;1711164;82;21552;-75
2022/06/18 00:22:13;;;;;;;6.10;4.75;;;;;;;14.98;91.42;99845.46;1718803;82;21954;-75
2022/06/18 00:24:40;;;;;;;5.37;4.33;;;;;;;14.94;91.61;99843.69;1724914;82;21036;-74
2022/06/18 00:27:14;;;;;;;4.65;4.20;;;;;;;14.92;91.87;99852.41;1660632;85;21051;-74
2022/06/18 00:29:41;;;;;;;5.12;4.60;;;;;;;15.03;91.96;99853.23;1653641;85;21551;-75
2022/06/18 00:32:08;;;;;;;5.95;4.90;;;;;;;15.03;91.96;99853.23;1679257;84;21113;-74
2022/06/18 00:34:36;;;;;;;7.22;5.85;;;;;;;15.01;92.09;99850.41;1667239;85;21015;-77
2022/06/18 00:37:05;;;;;;;5.83;4.80;;;;;;;14.97;92.33;99851.33;1655255;84;21067;-75
2022/06/18 00:39:31;;;;;;;5.08;4.67;;;;;;;15.03;92.67;99853.74;1723349;81;21090;-76
2022/06/18 00:42:01;;;;;;;6.87;5.10;;;;;;;15.11;92.31;99854.41;1720220;81;21509;-74
2022/06/18 00:44:35;;;;;;;5.78;5.08;;;;;;;15.12;92.31;99848.54;1712246;82;21072;-75
2022/06/18 00:47:21;;;;;;;5.28;4.78;;;;;;;15.07;92.15;99850.47;1713968;81;21244;-76
2022/06/18 00:50:18;;;;;;;5.67;4.70;;;;;;;15.09;92.21;99848.43;1716845;82;21010;-77
2022/06/18 00:52:53;;;;;;;5.65;5.15;;;;;;;15.12;92.13;99849.88;1718919;82;21056;-75
2022/06/18 00:55:28;;;;;;;5.30;4.80;;;;;;;15.05;92.36;99855.20;1729366;82;21658;-72
2022/06/18 00:58:01;;;;;;;5.30;4.80;;;;;;;15.01;92.26;99847.24;1719444;82;21124;-75
2022/06/18 01:00:38;;;;;;;5.97;5.47;;;;;;;15.05;92.27;99848.50;1720456;81;21128;-74
2022/06/18 01:03:09;;;;;;;5.92;5.42;;;;;;;15.01;92.13;99844.56;1707537;83;21096;-74
2022/06/18 01:05:39;;;;;;;5.17;4.65;;;;;;;14.95;92.26;99845.35;1734097;81;21510;-75
2022/06/18 01:08:17;;;;;;;6.92;4.85;;;;;;;14.96;92.31;99847.51;1722958;82;21087;-74
2022/06/18 01:10:50;;;;;;;6.22;5.33;;;;;;;15.00;92.40;99848.25;1718679;82;21045;-76
2022/06/18 01:13:20;;;;;;;5.87;5.37;;;;;;;14.94;92.42;99845.02;1715489;82;21256;-73
2022/06/18 01:15:47;;;;;;;4.75;4.30;;;;;;;14.89;92.44;99844.77;1724991;81;21011;-73
2022/06/18 01:18:15;;;;;;;5.42;4.95;;;;;;;14.97;92.18;99847.32;1724427;82;21050;-73
2022/06/18 01:20:54;;;;;;;5.15;4.75;;;;;;;15.02;91.86;99837.36;1708339;82;21030;-75
2022/06/18 01:23:44;;;;;;;5.20;4.70;;;;;;;14.96;91.78;99836.29;1718237;81;21090;-75
2022/06/18 01:26:11;;;;;;;4.58;4.12;;;;;;;14.91;91.80;99840.05;1723200;81;21538;-74
2022/06/18 01:28:39;;;;;;;5.10;4.20;;;;;;;15.00;91.35;99841.56;1720612;82;21063;-75
2022/06/18 01:31:07;;;;;;;5.72;5.22;;;;;;;14.97;91.22;99839.30;1722150;81;21121;-74
2022/06/18 01:33:35;;;;;;;6.62;4.50;;;;;;;14.90;91.34;99838.41;1718928;81;21070;-76
2022/06/18 01:36:04;;;;;;;5.62;4.25;;;;;;;14.91;91.17;99837.38;1706346;82;21062;-72
2022/06/18 01:38:32;;;;;;;4.92;4.10;;;;;;;14.98;90.89;99832.09;1720265;81;21158;-73
2022/06/18 01:44:10;;;;;;;5.17;4.35;;;;;;;14.88;90.99;99831.91;1719308;81;21062;-75
2022/06/18 01:46:37;;;;;;;6.95;5.05;;;;;;;14.89;90.71;99834.91;1733647;82;21057;-75
2022/06/18 01:49:06;;;;;;;5.17;4.37;;;;;;;14.93;90.67;99835.33;1719122;81;21114;-75
2022/06/18 01:51:37;;;;;;;5.25;4.37;;;;;;;14.91;90.81;99830.69;1678946;83;21199;-73
2022/06/18 01:54:11;;;;;;;5.47;4.20;;;;;;;14.95;90.55;99830.64;1689629;83;21034;-73
2022/06/18 01:56:43;;;;;;;5.40;4.58;;;;;;;15.05;90.27;99828.96;1695456;83;21070;-75
2022/06/18 01:59:25;;;;;;;5.03;4.62;;;;;;;15.02;90.54;99823.47;1692236;82;26631;-75
2022/06/18 02:01:52;;;;;;;5.45;4.90;;;;;;;14.99;90.37;99825.70;1694875;83;21617;-75
2022/06/18 02:04:20;;;;;;;6.05;5.55;;;;;;;15.06;90.24;99823.91;1686778;83;22252;-76
2022/06/18 02:06:47;;;;;;;5.35;4.92;;;;;;;15.06;89.86;99826.06;1702819;83;21046;-75
2022/06/18 02:09:34;;;;;;;4.30;3.90;;;;;;;15.02;89.94;99819.97;1708010;83;21054;-74
2022/06/18 02:12:05;;;;;;;5.58;5.08;;;;;;;15.04;89.84;99814.73;1691591;83;21055;-76
2022/06/18 02:14:34;;;;;;;5.58;5.05;;;;;;;15.12;89.53;99814.61;1699461;83;21534;-74
2022/06/18 02:17:03;;;;;;;5.92;5.33;;;;;;;15.04;89.84;99816.07;1686920;83;21121;-76
2022/06/18 02:19:33;;;;;;;6.85;4.95;;;;;;;14.94;90.11;99820.95;1697675;83;21043;-74
2022/06/18 02:22:01;;;;;;;4.83;4.42;;;;;;;14.98;90.52;99824.88;1689434;83;21049;-72
2022/06/18 02:24:29;;;;;;;5.50;4.90;;;;;;;15.05;90.03;99824.42;1697250;83;21515;-73
2022/06/18 02:26:56;;;;;;;5.62;5.12;;;;;;;15.03;90.14;99825.13;1690473;83;21660;-74
2022/06/18 02:29:27;;;;;;;4.95;4.45;;;;;;;14.99;90.45;99826.55;1693457;83;21979;-74
2022/06/18 02:31:53;;;;;;;5.58;4.95;;;;;;;15.02;90.34;99826.66;1697778;82;21755;-73
2022/06/18 02:34:24;;;;;;;5.58;5.10;;;;;;;15.09;90.12;99824.34;1693517;83;21143;-73
2022/06/18 02:36:50;;;;;;;6.62;5.92;;;;;;;15.07;90.27;99826.39;1690119;84;21581;-72
2022/06/18 02:39:40;;;;;;;6.25;5.65;;;;;;;15.03;90.44;99826.99;1695654;84;21078;-73
2022/06/18 02:42:12;;;;;;;6.12;5.53;;;;;;;15.05;90.62;99830.30;1686950;82;21124;-73
2022/06/18 02:44:40;;;;;;;7.17;6.10;;;;;;;15.14;90.37;99827.27;1689417;82;21024;-74
2022/06/18 02:47:08;;;;;;;7.40;6.75;;;;;;;15.10;90.30;99834.05;1689950;83;21130;-73
2022/06/18 02:49:38;;;;;;;6.22;5.72;;;;;;;15.04;90.60;99837.99;1692114;82;21106;-73
2022/06/18 02:52:06;;;;;;;6.90;6.30;;;;;;;15.09;90.52;99836.91;1701143;82;21604;-72
2022/06/18 02:54:33;;;;;;;7.70;7.10;;;;;;;15.08;90.85;99835.23;1738193;82;21207;-74
2022/06/18 02:57:02;;;;;;;7.00;6.30;;;;;;;15.04;90.96;99834.80;1723797;82;21675;-73
2022/06/18 02:59:31;;;;;;;7.03;6.33;;;;;;;15.05;91.15;99837.80;1733280;81;21486;-73
2022/06/18 03:01:58;;;;;;;8.50;7.70;;;;;;;15.13;91.18;99836.31;1734046;80;21033;-73
2022/06/18 03:04:24;;;;;;;8.50;7.80;;;;;;;15.11;91.46;99843.70;1729694;81;21093;-74
2022/06/18 03:06:54;;;;;;;8.48;7.67;;;;;;;15.11;91.74;99845.56;1739536;82;21107;-75
2022/06/18 03:09:21;;;;;;;8.30;7.50;;;;;;;15.23;91.78;99844.51;1728886;81;21550;-75
2022/06/18 03:12:06;;;;;;;9.30;8.35;;;;;;;15.38;91.39;99841.73;1726554;80;21564;-74
2022/06/18 03:14:35;;;;;;;10.45;9.18;;;;;;;15.37;91.19;99838.20;1727173;80;21105;-74
2022/06/18 03:17:03;;;;;;;9.58;8.65;;;;;;;15.31;91.27;99839.00;1745028;81;21549;-74
2022/06/18 03:19:39;;;;;;;11.00;10.00;;;;;;;15.35;91.34;99846.94;1739736;82;21243;-73
2022/06/18 03:22:13;;;;;;;11.35;10.35;;;;;;;15.42;91.22;99846.48;1740447;82;21061;-76
2022/06/18 03:24:41;;;;;;;10.75;9.90;;;;;;;15.39;91.24;99848.72;1734733;80;21045;-74
2022/06/18 03:27:09;;;;;;;10.10;9.23;;;;;;;15.35;91.60;99842.92;1731874;81;21066;-72
2022/06/18 03:29:36;;;;;;;12.40;11.20;;;;;;;15.44;91.37;99845.77;1727265;81;21033;-76
2022/06/18 03:32:05;;;;;;;11.57;10.48;;;;;;;15.52;91.03;99847.45;1712415;81;21158;-74
2022/06/18 03:34:32;;;;;;;14.35;13.05;;;;;;;15.47;90.89;99851.23;1724395;82;21408;-72
2022/06/18 03:36:59;;;;;;;12.70;11.38;;;;;;;15.39;91.32;99851.39;1725415;80;21072;-73
2022/06/18 03:39:26;;;;;;;13.93;12.63;;;;;;;15.43;91.40;99851.31;1733931;82;21041;-74
2022/06/18 03:41:54;;;;;;;13.58;12.33;;;;;;;15.54;90.97;99844.89;1745301;81;21581;-71
2022/06/18 03:44:22;;;;;;;16.15;14.65;;;;;;;15.60;91.42;99847.29;1726729;81;21789;-72
2022/06/18 03:46:49;;;;;;;16.60;13.22;;;;;;;15.62;91.13;99842.56;1679461;85;21062;-74
2022/06/18 03:49:25;;;;;;;16.00;12.90;;;;;;;15.73;90.81;99837.19;1720139;82;21520;-73
2022/06/18 03:51:54;;;;;;;15.72;14.25;;;;;;;15.85;90.40;99842.80;1709454;82;21094;-71
2022/06/18 03:54:21;;;;;;;16.85;15.15;;;;;;;15.85;89.93;99847.64;1727663;82;21490;-73
2022/06/18 03:56:48;;;;;;;17.05;15.35;;;;;;;15.84;89.89;99851.36;1693736;83;21606;-74
2022/06/18 03:59:15;;;;;;;18.25;14.75;;;;;;;15.88;89.84;99850.45;1666032;84;21110;-76
2022/06/18 04:01:42;;;;;;;17.37;15.63;;;;;;;15.98;89.31;99846.05;1717725;82;21026;-72
2022/06/18 04:04:11;;;;;;;17.10;15.23;;;;;;;16.01;89.33;99841.13;1706035;82;21077;-75
2022/06/18 04:06:43;;;;;;;16.17;14.58;;;;;;;16.03;89.30;99849.79;1728373;82;21541;-73
2022/06/18 04:09:17;;;;;;;16.52;15.05;;;;;;;16.15;89.33;99845.16;1717114;82;21165;-73
2022/06/18 04:11:45;;;;;;;16.50;14.80;;;;;;;16.31;89.00;99847.48;1719722;81;21089;-75
2022/06/18 04:14:11;;;;;;;17.80;15.93;;;;;;;16.40;89.12;99848.10;1726941;82;21067;-74
2022/06/18 04:16:44;;;;;;;15.70;14.10;;;;;;;16.41;88.71;99843.88;1700239;82;21126;-75
2022/06/18 04:19:17;;;;;;;;;;;;;;;16.47;88.32;99852.45;1726221;82;21018;-76
2022/06/18 04:21:44;;;;;;;15.32;13.80;;;;;;;16.57;87.72;99852.57;1731061;82;21861;-75
2022/06/18 04:24:12;;;;;;;16.10;14.60;;;;;;;16.54;87.56;99853.81;1721570;82;21050;-75
2022/06/18 04:26:42;;;;;;;15.68;14.13;;;;;;;16.52;87.16;99858.56;1722605;81;21372;-75
2022/06/18 04:29:08;;;;;;;14.78;13.20;;;;;;;16.53;86.87;99856.17;1709624;82;21085;-75
2022/06/18 04:31:38;;;;;;;14.98;13.38;;;;;;;16.58;86.43;99859.08;1723274;82;21077;-85
2022/06/18 04:34:06;;;;;;;15.93;14.33;;;;;;;16.55;86.49;99859.47;1727497;81;21248;-85
2022/06/18 04:36:38;;;;;;;16.27;14.58;;;;;;;16.46;86.44;99858.04;1700763;82;21042;-83
2022/06/18 04:39:10;;;;;;;15.10;13.50;;;;;;;16.46;86.83;99862.88;1724293;82;20982;-81
2022/06/18 04:41:42;;;;;;;15.30;13.87;;;;;;;16.54;86.86;99863.72;1722476;81;21572;-81
2022/06/18 04:44:10;;;;;;;16.20;13.93;;;;;;;16.50;86.67;99858.75;1683080;84;21114;-83
2022/06/18 04:46:39;;;;;;;15.58;14.05;;;;;;;16.46;86.60;99860.72;1714097;82;21305;-81
2022/06/18 04:49:06;;;;;;;13.60;12.35;;;;;;;16.42;86.71;99862.16;1700102;82;21081;-83
2022/06/18 04:51:33;;;;;;;13.88;12.53;;;;;;;16.46;86.66;99864.74;1715878;82;21565;-82
2022/06/18 04:54:00;;;;;;;14.30;12.88;;;;;;;16.54;85.97;99861.86;1718716;81;21021;-80
2022/06/18 04:56:29;;;;;;;15.03;13.58;;;;;;;16.53;85.89;99866.90;1701716;82;21674;-82
2022/06/18 04:58:55;;;;;;;16.05;13.10;;;;;;;16.47;85.81;99870.40;1705610;81;21243;-83
2022/06/18 05:01:30;;;;;;;14.93;13.53;;;;;;;16.51;85.83;99873.83;1720548;81;21729;-82
2022/06/18 05:03:58;;;;;;;14.20;12.68;;;;;;;16.61;86.16;99875.27;1709122;82;21058;-82
2022/06/18 05:06:42;;;;;;;14.53;13.13;;;;;;;16.65;86.02;99884.06;1693651;82;21027;-82
2022/06/18 05:09:20;;;;;;;18.85;13.28;;;;;;;16.69;85.74;99889.84;1730888;81;21025;-82
2022/06/18 05:11:58;;;;;;;13.72;12.35;;;;;;;16.82;85.15;99891.73;1727609;80;21163;-82
2022/06/18 05:14:39;;;;;;;15.85;12.80;;;;;;;17.00;85.12;99889.80;1717018;82;21617;-84
2022/06/18 05:17:11;;;;;;;14.38;12.90;;;;;;;17.10;84.97;99893.70;1718581;81;21082;-84
2022/06/18 05:19:40;;;;;;;13.50;12.13;;;;;;;17.18;85.02;99895.34;1713122;81;21062;-82
2022/06/18 05:22:08;;;;;;;13.65;11.70;;;;;;;17.29;84.97;99898.75;1731629;82;21002;-83
2022/06/18 05:24:37;;;;;;;14.70;13.28;;;;;;;17.53;84.75;99899.64;1724204;81;21952;-84
2022/06/18 05:27:05;;;;;;;13.83;12.53;;;;;;;17.66;83.54;99901.78;1721326;81;21554;-85
2022/06/18 05:29:32;;;;;;;13.75;11.90;;;;;;;17.65;83.28;99900.14;1713453;82;21041;-83
2022/06/18 05:31:59;;;;;;;12.13;11.00;;;;;;;17.69;83.61;99900.52;1696946;82;21078;-83
2022/06/18 05:34:27;;;;;;;11.22;10.23;;;;;;;17.87;83.17;99907.97;1730782;82;21574;-84
2022/06/18 05:36:55;;;;;;;12.43;11.22;;;;;;;18.11;83.17;99900.22;1729970;81;21523;-85
2022/06/18 05:39:23;;;;;;;12.80;11.53;;;;;;;18.27;83.35;99898.37;1727741;82;21506;-84
2022/06/18 05:41:50;;;;;;;12.10;11.00;;;;;;;18.41;82.65;99896.45;1723418;81;21062;-87
2022/06/18 05:44:17;;;;;;;13.32;10.85;;;;;;;18.54;81.72;99901.73;1724123;78;21050;-85
2022/06/18 05:46:44;;;;;;;11.45;10.38;;;;;;;18.67;80.86;99902.17;1719222;80;21034;-84
2022/06/18 05:49:10;;;;;;;12.00;10.80;;;;;;;18.78;79.58;99900.67;1724742;82;21633;-85
2022/06/18 05:51:38;;;;;;;12.70;10.58;;;;;;;18.78;80.37;99898.80;1726188;81;21023;-83
2022/06/18 05:54:06;;;;;;;11.00;9.78;;;;;;;18.79;80.76;99901.77;1723505;81;21054;-82
2022/06/18 05:56:46;;;;;;;11.38;10.25;;;;;;;18.90;80.92;99902.98;1734946;82;21066;-79
2022/06/18 05:59:31;;;;;;;12.15;9.75;;;;;;;19.04;78.99;99910.42;1721301;82;21542;-79
2022/06/18 06:01:58;;;;;;;11.20;10.18;;;;;;;19.10;78.79;99907.38;1734286;82;21768;-82
2022/06/18 06:04:27;;;;;;;12.25;11.00;;;;;;;19.15;78.54;99911.06;1734267;82;21094;-82
2022/06/18 06:06:54;;;;;;;10.68;9.68;;;;;;;19.17;77.62;99910.31;1723127;81;21034;-81
2022/06/18 06:12:14;;;;;;;11.45;10.25;;;;;;;19.26;77.75;99912.22;1722867;81;21058;-82
2022/06/18 06:14:39;;;;;;;11.73;10.63;;;;;;;19.27;78.33;99916.55;1719507;81;21288;-85
2022/06/18 06:17:18;;;;;;;14.58;11.25;;;;;;;19.32;77.63;99919.95;1711240;77;21224;-82
2022/06/18 06:19:44;;;;;;;10.98;9.90;;;;;;;19.31;77.10;99916.94;1715270;82;20951;-85
2022/06/18 06:22:11;;;;;;;15.23;11.30;;;;;;;19.38;77.99;99921.75;1732362;82;21011;-85
2022/06/18 06:24:38;;;;;;;11.45;10.50;;;;;;;19.41;76.96;99928.88;1724067;82;21086;-81
2022/06/18 06:27:05;;;;;;;10.45;9.63;;;;;;;19.40;77.15;99925.86;1716163;82;21289;-81
2022/06/18 06:29:32;;;;;;;12.20;11.12;;;;;;;19.38;76.54;99929.30;1713044;82;21071;-80
2022/06/18 06:31:59;;;;;;;12.90;10.98;;;;;;;19.34;76.80;99928.62;1736359;82;21320;-80
2022/06/18 06:34:25;;;;;;;9.63;8.80;;;;;;;19.39;77.23;99927.42;1731555;82;20973;-80
2022/06/18 06:36:52;;;;;;;11.22;10.13;;;;;;;19.55;77.91;99926.87;1731053;80;20928;-81
2022/06/18 06:39:20;;;;;;;11.57;10.48;;;;;;;19.63;76.70;99927.10;1727922;82;21267;-81
2022/06/18 06:41:47;;;;;;;12.25;11.25;;;;;;;19.68;76.71;99924.54;1745264;81;21042;-80
2022/06/18 06:44:13;;;;;;;12.23;11.10;;;;;;;19.72;76.15;99927.15;1729643;81;21531;-79
2022/06/18 06:46:40;;;;;;;11.00;9.95;;;;;;;19.74;75.52;99930.44;1718191;82;21038;-82
2022/06/18 06:49:08;;;;;;;12.10;10.90;;;;;;;19.82;74.63;99932.83;1724285;82;21090;-80
2022/06/18 06:51:37;;;;;;;10.80;9.85;;;;;;;19.90;74.94;99932.25;1719926;82;21189;-81
2022/06/18 06:54:04;;;;;;;11.97;11.00;;;;;;;19.92;74.81;99936.35;1669423;85;21635;-80
2022/06/18 06:59:17;;;;;;;12.00;10.80;;;;;;;19.82;74.51;99934.18;1651933;84;21072;-81
2022/06/18 07:01:43;;;;;;;11.48;10.38;;;;;;;19.78;76.22;99944.27;1743330;81;21086;-81
2022/06/18 07:04:11;;;;;;;11.38;9.38;;;;;;;19.84;75.29;99940.17;1737768;81;21362;-81
2022/06/18 07:07:31;;;;;;;11.57;9.60;;;;;;;19.97;74.95;99939.21;1887763;76;22636;-80
2022/06/18 07:09:59;;;;;;;10.68;9.85;;;;;;;19.89;74.35;99940.02;1852636;77;22089;-80
2022/06/18 07:12:25;;;;;;;10.80;9.80;;;;;;;19.80;74.13;99941.67;1849868;77;21541;-81
2022/06/18 07:14:52;;;;;;;9.78;8.88;;;;;;;19.73;74.33;99944.95;1789198;80;20989;-79
2022/06/18 07:17:19;;;;;;;11.55;9.93;;;;;;;19.68;73.95;99945.28;1820974;78;20902;-82
2022/06/18 07:19:45;;;;;;;10.00;8.60;;;;;;;19.63;74.59;99954.87;1819570;75;20949;-79
2022/06/18 07:22:13;;;;;;;10.63;9.55;;;;;;;19.70;74.54;99950.77;1826042;75;20847;-81
2022/06/18 07:24:40;;;;;;;10.90;9.53;;;;;;;19.82;74.57;99953.05;1794818;78;21189;-80
2022/06/18 07:27:07;;;;;;;13.68;10.35;;;;;;;19.84;74.04;99955.53;1776558;80;20897;-80
2022/06/18 07:29:34;;;;;;;13.15;11.30;;;;;;;19.81;73.76;99955.43;1796457;78;21458;-81
2022/06/18 07:32:07;;;;;;;11.28;10.28;;;;;;;19.77;74.58;99950.19;1800686;79;21529;-80
2022/06/18 07:34:34;;;;;;;10.63;9.35;;;;;;;19.86;75.06;99956.63;1781955;79;21092;-81
2022/06/18 07:37:01;;;;;;;10.48;9.40;;;;;;;19.99;73.92;99957.83;1786900;78;21534;-79
2022/06/18 07:39:28;;;;;;;10.25;9.35;;;;;;;20.13;74.04;99949.91;1772180;80;21037;-79
2022/06/18 07:41:55;;;;;;;9.83;8.83;;;;;;;20.24;73.96;99959.09;1782024;80;21064;-80
2022/06/18 07:44:22;;;;;;;9.70;8.83;;;;;;;20.33;73.11;99949.65;1764556;80;21537;-81
2022/06/18 07:46:57;;;;;;;10.25;9.20;;;;;;;20.46;72.41;99950.55;1788969;78;21093;-81
2022/06/18 07:49:22;;;;;;;11.03;9.65;;;;;;;20.58;72.66;99946.83;1783134;80;21148;-82
2022/06/18 07:51:48;;;;;;;10.03;8.35;;;;;;;20.78;72.39;99945.75;1778366;80;20990;-80
2022/06/18 07:54:15;;;;;;;8.70;6.75;;;;;;;20.95;70.93;99933.23;1778899;80;21607;-80
2022/06/18 07:56:42;;;;;;;6.80;6.08;;;;;;;21.07;70.41;99932.44;1770430;80;21065;-81
2022/06/18 07:59:08;;;;;;;7.03;6.25;;;;;;;21.23;68.98;99933.12;1789880;79;21014;-81
2022/06/18 08:01:35;;;;;;;7.47;6.53;;;;;;;21.35;68.22;99931.23;1794492;79;21797;-81
2022/06/18 08:04:04;;;;;;;6.20;5.70;;;;;;;21.36;67.85;99934.75;1788601;79;21033;-80
2022/06/18 08:06:30;;;;;;;7.72;5.97;;;;;;;21.36;67.66;99932.89;1783958;79;21002;-81
2022/06/18 08:08:57;;;;;;;6.85;6.15;;;;;;;21.37;66.68;99930.47;1773360;80;22260;-81
2022/06/18 08:11:25;;;;;;;5.75;5.30;;;;;;;21.37;67.05;99937.77;1770086;80;21554;-80
2022/06/18 08:13:53;;;;;;;5.42;5.03;;;;;;;21.38;67.04;99934.83;1776137;80;21436;-80
2022/06/18 08:16:21;;;;;;;5.45;4.62;;;;;;;21.39;66.15;99933.76;1770588;80;21696;-82
2022/06/18 08:18:48;;;;;;;6.85;4.85;;;;;;;21.43;65.71;99941.41;1764939;80;21503;-81
2022/06/18 08:21:28;;;;;;;5.30;4.72;;;;;;;21.45;65.34;99939.33;1738802;81;21506;-81
2022/06/18 08:23:59;;;;;;;5.40;5.00;;;;;;;21.47;65.03;99939.91;1776606;80;21050;-81
2022/06/18 08:26:25;;;;;;;5.75;4.42;;;;;;;21.52;64.24;99938.69;1777897;80;21188;-80
2022/06/18 08:28:51;;;;;;;6.85;5.15;;;;;;;21.59;65.14;99938.02;1758051;80;21062;-81
2022/06/18 08:31:19;;;;;;;5.65;5.03;;;;;;;21.64;64.35;99944.08;1754193;80;21533;-82
2022/06/18 08:33:47;;;;;;;5.47;5.08;;;;;;;21.71;64.57;99943.41;1754529;80;21798;-79
2022/06/18 08:36:14;;;;;;;6.90;4.37;;;;;;;21.79;64.37;99939.02;1766859;80;21081;-80
2022/06/18 08:38:45;;;;;;;6.65;3.98;;;;;;;21.92;64.46;99933.86;1769888;80;21589;-81
2022/06/18 08:41:51;;;;;;;4.00;3.60;;;;;;;22.10;62.22;99939.66;1775226;79;21006;-80
2022/06/18 08:44:41;;;;;;;3.87;3.45;;;;;;;22.24;61.28;99928.03;1776708;79;21102;-80
2022/06/18 08:47:29;;;;;;;4.25;3.70;;;;;;;22.43;60.97;99925.46;1769990;80;21534;-81
2022/06/18 08:50:37;;;;;;;5.10;3.77;;;;;;;22.66;60.22;99929.13;1762785;79;21591;-81
2022/06/18 08:53:26;;;;;;;3.80;3.35;;;;;;;22.84;58.46;99926.19;1775380;80;21132;-79
2022/06/18 08:56:10;;;;;;;5.72;3.87;;;;;;;22.90;57.47;99923.03;1772466;79;21026;-81
2022/06/18 08:58:45;;;;;;;3.87;3.55;;;;;;;22.92;57.40;99921.72;1761080;80;21017;-80
2022/06/18 09:01:23;;;;;;;6.05;4.10;;;;;;;22.97;57.65;99913.69;1757698;80;21620;-80
2022/06/18 09:04:10;;;;;;;4.15;3.75;;;;;;;23.11;57.17;99917.45;1803134;78;21073;-80
2022/06/18 09:07:33;;;;;;;3.92;3.20;;;;;;;23.25;57.11;99928.23;1765707;80;21325;-80
2022/06/18 09:10:19;;;;;;;3.58;3.27;;;;;;;;;;1786963;78;21116;-79
2022/06/18 09:13:06;;;;;;;3.70;3.40;;;;;;;23.44;54.83;99922.56;1774620;80;21045;-80
2022/06/18 09:15:41;;;;;;;4.15;3.47;;;;;;;23.48;54.22;99934.55;1778877;80;21098;-79
2022/06/18 09:18:19;;;;;;;5.85;3.50;;;;;;;23.50;54.32;99939.19;1744410;80;21166;-80
2022/06/18 09:20:51;;;;;;;4.28;2.98;;;;;;;23.61;54.75;99936.91;1766943;79;22168;-79
2022/06/18 09:23:35;;;;;;;6.75;3.58;;;;;;;23.83;54.13;99936.16;1776886;80;21045;-80
2022/06/18 09:26:01;;;;;;;3.62;3.33;;;;;;;24.06;53.59;99926.41;1779352;80;21014;-80
2022/06/18 09:28:39;;;;;;;3.30;3.10;;;;;;;24.33;53.71;99924.28;1782337;79;20961;-79
2022/06/18 09:31:16;;;;;;;3.95;3.58;;;;;;;24.66;52.93;99926.55;1781957;79;21001;-79
2022/06/18 09:33:47;;;;;;;4.65;4.20;;;;;;;24.98;52.71;99929.30;1768408;80;21243;-81
2022/06/18 09:36:21;;;;;;;4.80;3.98;;;;;;;25.15;52.10;99931.05;1791153;80;21044;-82
2022/06/18 09:38:52;;;;;;;4.50;4.08;;;;;;;25.17;52.60;99933.80;1783284;79;21033;-81
2022/06/18 09:41:29;;;;;;;4.33;4.03;;;;;;;25.05;52.45;99924.98;1788894;80;21052;-80
2022/06/18 09:44:01;;;;;;;4.42;3.95;;;;;;;24.84;52.86;99926.71;1776506;79;21080;-79
2022/06/18 09:46:51;;;;;;;3.95;3.55;;;;;;;24.64;52.46;99923.27;1784218;80;21254;-78
2022/06/18 09:49:19;;;;;;;5.67;3.15;;;;;;;24.40;52.08;99933.05;1790890;80;20929;-80
2022/06/18 09:52:14;;;;;;;3.10;2.90;;;;;;;24.20;51.73;99926.02;1813228;78;21141;-80
2022/06/18 09:54:53;;;;;;;3.72;2.98;;;;;;;24.29;51.74;99916.36;1717969;80;21005;-82
2022/06/18 09:57:23;;;;;;;3.50;3.20;;;;;;;24.75;51.62;99916.05;1775324;79;21069;-81
2022/06/18 10:00:10;;;;;;;3.05;2.75;;;;;;;25.49;50.94;99909.29;1790111;78;21148;-82
2022/06/18 10:02:57;;;;;;;3.42;2.87;;;;;;;26.32;48.59;99909.69;1816298;77;21014;-83
2022/06/18 10:08:32;;;;;;;3.62;3.12;;;;;;;27.92;45.45;99906.66;1783756;80;21057;-81
2022/06/18 10:11:08;;;;;;;3.00;2.65;;;;;;;28.76;44.71;99899.92;1813734;78;21484;-82
2022/06/18 10:13:48;;;;;;;3.00;2.80;;;;;;;29.41;44.24;99896.06;1798241;78;20993;-82
2022/06/18 10:16:45;;;;;;;11.83;2.98;;;;;;;29.91;43.54;99893.87;1787296;79;21037;-82
2022/06/18 10:19:33;;;;;;;5.80;3.30;;;;;;;30.21;42.39;99900.61;1796250;79;21336;-83
2022/06/18 10:22:39;;;;;;;3.30;3.00;;;;;;;30.11;42.24;99894.71;1792908;78;21072;-81
2022/06/18 10:25:18;;;;;;;3.42;2.47;;;;;;;29.78;42.75;99900.87;1803527;77;21053;-82
2022/06/18 10:27:52;;;;;;;3.10;2.80;;;;;;;29.34;41.76;99898.32;1804354;78;21114;-81
2022/06/18 10:30:36;;;;;;;2.60;2.40;;;;;;;28.78;42.06;99894.98;1801726;78;21014;-82
2022/06/18 10:33:38;;;;;;;3.02;2.65;;;;;;;28.35;42.77;99899.34;1790187;78;20929;-81
2022/06/18 10:36:22;;;;;;;3.17;2.98;;;;;;;28.20;43.28;99900.23;1797797;77;21046;-83
2022/06/18 10:39:07;;;;;;;3.98;3.02;;;;;;;28.22;44.51;99898.03;1821115;77;21053;-83
2022/06/18 10:41:49;;;;;;;3.15;2.83;;;;;;;28.35;44.82;99904.80;1766838;79;21326;-83
2022/06/18 10:44:45;;;;;;;2.80;2.60;;;;;;;28.63;44.64;99902.73;1771778;79;21111;-81
2022/06/18 10:47:17;;;;;;;3.45;2.55;;;;;;;28.82;44.17;99897.41;1770134;79;21040;-82
2022/06/18 10:49:46;;;;;;;3.12;2.83;;;;;;;28.94;43.14;99897.59;1781322;79;21029;-84
2022/06/18 10:52:21;;;;;;;2.62;2.42;;;;;;;29.13;42.58;99899.07;1794052;79;21346;-83
2022/06/18 10:54:48;;;;;;;2.70;2.50;;;;;;;29.41;41.63;99904.27;1784871;79;21156;-84
2022/06/18 10:57:26;;;;;;;2.90;2.60;;;;;;;29.90;41.08;99903.75;1783585;79;21447;-83
2022/06/18 10:59:53;;;;;;;3.30;2.58;;;;;;;30.49;40.41;99903.79;1790506;79;21045;-81
2022/06/18 11:02:34;;;;;;;3.05;2.75;;;;;;;31.13;39.57;99894.55;1776359;79;21135;-83
2022/06/18 11:05:05;;;;;;;3.17;2.87;;;;;;;31.76;38.42;99896.42;1781192;79;21088;-82
2022/06/18 11:07:33;;;;;;;4.12;2.80;;;;;;;32.46;38.67;99895.75;1794070;79;21876;-84
2022/06/18 11:10:06;;;;;;;3.25;2.77;;;;;;;32.67;38.13;99894.16;1799096;78;21565;-84
2022/06/18 11:12:37;;;;;;;3.45;3.15;;;;;;;32.55;38.40;99895.27;1798500;79;21092;-83
2022/06/18 11:15:22;;;;;;;3.02;2.83;;;;;;;32.25;38.68;99901.70;1795012;79;21041;-82
2022/06/18 11:17:48;;;;;;;3.08;2.77;;;;;;;32.07;38.63;99897.19;1793793;79;21588;-82
2022/06/18 11:20:23;;;;;;;2.83;2.62;;;;;;;31.84;38.71;99891.58;1774709;79;21884;-82
2022/06/18 11:23:03;;;;;;;2.77;2.52;;;;;;;31.53;38.63;99899.63;1797233;79;21017;-82
2022/06/18 11:25:49;;;;;;;3.40;3.10;;;;;;;31.32;39.20;99898.59;1792302;79;21033;-83
2022/06/18 11:28:21;;;;;;;3.40;2.52;;;;;;;31.28;38.83;99900.32;1776718;79;21039;-83
2022/06/18 11:30:50;;;;;;;3.47;2.80;;;;;;;31.39;38.61;99910.56;1793794;79;21076;-85
2022/06/18 11:33:39;;;;;;;3.22;2.60;;;;;;;31.20;38.46;99909.83;1797650;79;21113;-82
2022/06/18 11:36:14;;;;;;;2.90;2.62;;;;;;;30.98;38.54;99909.90;1796906;74;21019;-81
2022/06/18 11:38:42;;;;;;;2.80;2.27;;;;;;;30.66;39.15;99907.38;1784789;79;21035;-82
2022/06/18 11:41:41;;;;;;;4.03;2.52;;;;;;;30.40;39.65;99904.76;1753043;80;21041;-83
2022/06/18 11:44:20;;;;;;;2.77;2.58;;;;;;;30.30;39.67;99903.76;1775606;80;21027;-83
2022/06/18 11:46:55;;;;;;;2.67;2.40;;;;;;;30.21;39.85;99911.03;1789966;80;21299;-83
2022/06/18 11:49:37;;;;;;;3.35;2.90;;;;;;;30.08;40.69;99916.67;1769350;80;21061;-82
2022/06/18 11:52:12;;;;;;;3.08;2.77;;;;;;;30.00;40.99;99924.17;1781048;80;21088;-81
2022/06/18 11:54:53;;;;;;;3.02;2.67;;;;;;;29.76;41.48;99919.51;1792230;78;21046;-82
2022/06/18 11:57:37;;;;;;;4.08;2.47;;;;;;;29.46;42.26;99913.81;1808864;79;20990;-81
2022/06/18 12:00:34;;;;;;;3.47;3.27;;;;;;;29.13;43.04;99910.84;1790983;80;21908;-82
2022/06/18 12:03:06;;;;;;;5.17;3.15;;;;;;;28.69;43.82;99917.19;1783423;80;21037;-81
2022/06/18 12:05:36;;;;;;;3.35;3.05;;;;;;;28.34;44.72;99918.21;1783592;79;21021;-81
2022/06/18 12:08:04;;;;;;;4.47;2.98;;;;;;;28.20;45.13;99912.53;1775259;79;21057;-81
2022/06/18 12:10:42;;;;;;;3.05;2.62;;;;;;;28.15;45.00;99911.20;1740598;81;21061;-81